Terminal Aerodrome Forecast
Issued by NWS Austin/San Antonio, TX

Home | Current Version | Previous Version | Text Only | Print | Product List | Glossary On
Versions: 1 2 3 4 5 6 7 8 9 10 11 12 13 14 15 16 17 18 19 20 21 22 23 24
000
FTUS44 KEWX 262342
TAFDRT
TAF
KDRT 262342Z 2700/2724 10012KT P6SM VCTS BKN150CB
     FM270100 11010KT P6SM SCT040 BKN200
     FM270500 12009KT P6SM OVC015
     FM271000 12009KT 5SM BR OVC008
     FM271600 13012KT P6SM BKN015
     FM271800 13012G22KT P6SM BKN040=

USA.gov is the U.S. government's official web portal to all federal, state and local government web resources and services.